Ribera, New Mexico
Current Conditions -  °F | °C
As of 2:53 PM on Thursday 27 Nov 2014 (Local Time) from KLVS Reporting Station
Clear Clear  
Wind Chill: 65°   Ceiling: Unl
Heat Index: 65°   Visibility: 10mi
Dew Point: 16°   Wind: 15mph
Humidity: 15%   Direction: 170°S
Pressure: 30.3"   Gusts: NA
Location:  35.38°N, 105.45°W
Report Text: KLVS 272153Z AUTO 17013KT 10SM CLR 18/M09 A3030 RMK AO2 SLP195 T01831089
Loading
Personal Weather Stations






























Interactive Weather Map New forecast layout! Learn more

10-Day Weather Forecast

Advertisements
Track Severe Weather on mobile